Condor Express — 9V5373 — position and weather

sailwx.info

Track history (hours):
 
Tides and Currents Weather Stations Pressure Air Temp Water Temp Dewpoint Dewpoint Depression Visibility Wind Speed Wind Dir Waves Ship Positions

Condor Express

Operator: Condor Marine Services

Last reported at 2017-Jun-26 08:58 UTC. Time now 2017-Jun-26 17:16 UTC.
Position N 48°23' W 006°12'.

Length 235 m; draft 8.9 m.

Type: Cargo ship. MMSI: 563014500.

Date/timePositionNaut miles runAvg speedWind from/ knotsBaromVisibWave heightAir tempDewpointWater temp
2017-Jun-26 08:58N 48°23' W 006°12'5211.0
2017-Jun-26 04:14N 49°04' W 005°22'210.8
2017-Jun-26 04:00N 49°05' W 005°19'811.2
2017-Jun-26 03:20N 49°09' W 005°09'511.2
2017-Jun-26 02:52N 49°12' W 005°03'411.3
2017-Jun-26 02:30N 49°14' W 004°57'612.3
2017-Jun-26 02:00N 49°16' W 004°49'713.1
2017-Jun-26 01:30N 49°20' W 004°40'713.6
2017-Jun-26 01:00N 49°23' W 004°31'713.8
2017-Jun-26 00:30N 49°26' W 004°22'713.9
2017-Jun-26 00:00N 49°30' W 004°13'713.7
2017-Jun-25 23:30N 49°33' W 004°03'613.1
2017-Jun-25 23:00N 49°37' W 003°55'612.7
2017-Jun-25 22:30N 49°40' W 003°46'811.9
2017-Jun-25 21:52N 49°43' W 003°36'411.2
2017-Jun-25 21:30N 49°45' W 003°30'510.5
2017-Jun-25 21:00N 49°47' W 003°23'5 9.9
2017-Jun-25 20:30N 49°50' W 003°17'5 9.5
2017-Jun-25 20:00N 49°53' W 003°11'5 9.4
2017-Jun-25 19:30N 49°55' W 003°04'5 9.5
2017-Jun-25 19:00N 49°58' W 002°58'5 9.6
2017-Jun-25 18:30N 49°60' W 002°51'510.1
2017-Jun-25 18:00N 50°01' W 002°43'510.7
2017-Jun-25 17:30N 50°03' W 002°36'611.7
2017-Jun-25 17:00N 50°04' W 002°27'712.8
2017-Jun-25 16:28N 50°06' W 002°17'613.8
2017-Jun-25 16:00N 50°08' W 002°07'714.6
2017-Jun-25 15:30N 50°10' W 001°56'815.3
2017-Jun-25 15:00N 50°12' W 001°45'715.0
2017-Jun-25 14:31N 50°14' W 001°33'1514.5
2017-Jun-25 13:30N 50°18' W 001°11'713.5
2017-Jun-25 13:00N 50°20' W 001°01'712.1
2017-Jun-25 12:28N 50°21' W 000°51'2210.2
2017-Jun-25 10:21N 50°27' W 000°18'3 9.3
2017-Jun-25 10:00N 50°28' W 000°13'4 9.1
2017-Jun-25 09:30N 50°28' W 000°06'5 9.0
2017-Jun-25 09:00N 50°29' E 000°00'5 9.2
2017-Jun-25 08:30N 50°31' E 000°07'5 9.7
2017-Jun-25 08:00N 50°33' E 000°14'510.4
2017-Jun-25 07:30N 50°34' E 000°22'611.2
2017-Jun-25 07:00N 50°36' E 000°31'612.0
2017-Jun-25 06:30N 50°38' E 000°39'612.6
2017-Jun-25 06:00N 50°42' E 000°47'612.9
2017-Jun-25 05:30N 50°45' E 000°56'712.9
2017-Jun-25 04:59N 50°49' E 001°05'612.5
2017-Jun-25 04:30N 50°52' E 001°13'611.8
2017-Jun-25 04:00N 50°56' E 001°20'611.4
2017-Jun-25 03:30N 51°00' E 001°26'510.4
2017-Jun-25 03:01N 51°04' E 001°31'5 9.3
2017-Jun-25 02:30N 51°08' E 001°36'4 8.8
2017-Jun-25 02:00N 51°11' E 001°41'4 8.9
2017-Jun-25 01:30N 51°14' E 001°46'4 8.9
2017-Jun-25 01:01N 51°18' E 001°49'5 9.4
2017-Jun-25 00:30N 51°22' E 001°53'510.0
2017-Jun-25 00:00N 51°27' E 001°57'510.8
2017-Jun-24 23:30N 51°31' E 002°02'611.2
2017-Jun-24 23:00N 51°35' E 002°09'611.8
2017-Jun-24 22:29N 51°39' E 002°16'15711.3
2017-Jun-24 08:36N 53°58' E 004°16'111.6
2017-Jun-24 08:30N 53°59' E 004°17'611.5
2017-Jun-24 08:00N 54°02' E 004°25'611.3
2017-Jun-24 07:30N 54°07' E 004°31'611.3
2017-Jun-24 06:59N 54°12' E 004°36'25811.6
2017-Jun-23 08:44N 57°41' E 009°05'411.6
2017-Jun-23 08:25N 57°44' E 009°11'511.6
2017-Jun-23 07:59N 57°47' E 009°18'511.4
2017-Jun-23 07:30N 57°48' E 009°28'612.1
2017-Jun-23 07:00N 57°48' E 009°40'612.4
2017-Jun-23 06:30N 57°49' E 009°51'612.7
2017-Jun-23 06:00N 57°49' E 010°03'612.8
2017-Jun-23 05:30N 57°50' E 010°15'713.0
2017-Jun-23 05:00N 57°50' E 010°28'713.1
2017-Jun-23 04:29N 57°50' E 010°40'612.0
2017-Jun-23 04:00N 57°48' E 010°50'612.4
2017-Jun-23 03:28N 57°44' E 011°00'612.4
2017-Jun-23 03:00N 57°41' E 011°10'612.4
2017-Jun-23 02:31N 57°39' E 011°20'612.5
2017-Jun-23 02:01N 57°35' E 011°30'510.0
2017-Jun-23 01:31N 57°33' E 011°38'0 0.6
2017-Jun-23 00:58N 57°33' E 011°38'0 0.1
2017-Jun-23 00:28N 57°33' E 011°38'0 0.0
2017-Jun-22 23:58N 57°33' E 011°38'0 0.0
2017-Jun-22 23:28N 57°33' E 011°38'0 0.0
2017-Jun-22 22:58N 57°33' E 011°38'0 0.0
2017-Jun-22 22:28N 57°33' E 011°38'0 0.0
2017-Jun-22 21:58N 57°33' E 011°38'0 0.0
2017-Jun-22 21:28N 57°33' E 011°38'0 0.0
2017-Jun-22 20:55N 57°33' E 011°38'0 0.0
2017-Jun-22 20:28N 57°33' E 011°38'0 0.1
2017-Jun-22 19:58N 57°33' E 011°38'0 0.0
2017-Jun-22 19:28N 57°33' E 011°38'0 0.0
2017-Jun-22 18:58N 57°33' E 011°38'0 0.0
2017-Jun-22 18:28N 57°33' E 011°38'0 0.1
2017-Jun-22 17:58N 57°33' E 011°38'0 0.0
2017-Jun-22 17:22N 57°33' E 011°38'0 0.1
2017-Jun-22 16:58N 57°33' E 011°38'0 0.1
2017-Jun-22 16:28N 57°33' E 011°38'0 0.1
2017-Jun-22 15:58N 57°33' E 011°38'0 0.2
2017-Jun-22 15:30N 57°33' E 011°38'4 7.4
2017-Jun-22 15:00N 57°31' E 011°32'5 9.3
2017-Jun-22 14:26N 57°26' E 011°28'1212.4
2017-Jun-22 13:27N 57°15' E 011°35'612.3
2017-Jun-22 13:00N 57°10' E 011°38'612.4
2017-Jun-22 12:30N 57°04' E 011°42'3010.2
2017-Jun-22 09:32N 56°34' E 011°29'012.6
2017-Jun-22 09:30N 56°34' E 011°29'712.7
2017-Jun-22 08:58N 56°29' E 011°19'712.7
2017-Jun-22 08:26N 56°25' E 011°10'410.5
2017-Jun-22 08:00N 56°21' E 011°06'712.8
2017-Jun-22 07:26N 56°14' E 011°06'512.9
2017-Jun-22 07:00N 56°08' E 011°05'712.8
2017-Jun-22 06:30N 56°02' E 011°04'612.2
2017-Jun-22 06:00N 55°56' E 010°59'612.8
2017-Jun-22 05:30N 55°52' E 010°52'712.3
2017-Jun-22 04:56N 55°45' E 010°48'613.0
2017-Jun-22 04:29N 55°39' E 010°47'713.2
2017-Jun-22 03:57N 55°32' E 010°51'613.0
2017-Jun-22 03:30N 55°27' E 010°56'612.7
2017-Jun-22 02:59N 55°22' E 011°02'612.9
2017-Jun-22 02:30N 55°16' E 011°05'611.5
2017-Jun-22 02:00N 55°10' E 011°03'612.4
2017-Jun-22 01:30N 55°04' E 011°02'611.6
2017-Jun-22 01:00N 54°58' E 010°59'611.7
2017-Jun-22 00:30N 54°53' E 010°54'612.4
2017-Jun-22 00:00N 54°48' E 010°50'611.6
2017-Jun-21 23:30N 54°42' E 010°46'3 6.0
2017-Jun-21 23:00N 54°40' E 010°50'510.3
2017-Jun-21 22:30N 54°37' E 010°57'611.0
2017-Jun-21 22:00N 54°37' E 011°07'611.7
2017-Jun-21 21:30N 54°35' E 011°16'611.9
2017-Jun-21 21:00N 54°33' E 011°26'612.1
2017-Jun-21 20:30N 54°30' E 011°35'712.0
2017-Jun-21 19:53N 54°27' E 011°47'3611.1
2017-Jun-21 16:41N 54°45' E 012°39'412.7
2017-Jun-21 16:20N 54°47' E 012°46'1212.3
2017-Jun-21 15:22N 54°52' E 013°05'512.5
2017-Jun-21 14:57N 54°54' E 013°13'1212.6
2017-Jun-21 13:59N 54°58' E 013°33'612.6
2017-Jun-21 13:30N 54°60' E 013°44'612.3
2017-Jun-21 13:00N 55°02' E 013°54'611.8
2017-Jun-21 12:30N 55°04' E 014°03'612.1
2017-Jun-21 12:00N 55°08' E 014°10'612.3
2017-Jun-21 11:31N 55°13' E 014°16'612.0
2017-Jun-21 11:01N 55°18' E 014°23'612.0
2017-Jun-21 10:30N 55°22' E 014°30'611.5
2017-Jun-21 10:00N 55°26' E 014°39'611.9
2017-Jun-21 09:30N 55°25' E 014°49'611.9
2017-Jun-21 09:00N 55°24' E 014°59'612.1
2017-Jun-21 08:30N 55°24' E 015°10'612.1
2017-Jun-21 08:00N 55°25' E 015°20'611.5
2017-Jun-21 07:30N 55°24' E 015°30'612.0
2017-Jun-21 07:00N 55°23' E 015°41'612.5
2017-Jun-21 06:30N 55°22' E 015°51'612.4
2017-Jun-21 06:00N 55°20' E 016°02'612.1
2017-Jun-21 05:30N 55°19' E 016°12'611.7
2017-Jun-21 04:59N 55°17' E 016°22'812.1
2017-Jun-21 04:21N 55°15' E 016°35'412.3
2017-Jun-21 04:00N 55°14' E 016°43'712.2
2017-Jun-21 03:25N 55°12' E 016°55'512.3
2017-Jun-21 02:59N 55°11' E 017°04'612.2
2017-Jun-21 02:30N 55°10' E 017°14'1912.0
2017-Jun-21 00:54N 55°06' E 017°47'711.6
2017-Jun-21 00:17N 55°04' E 017°59'311.4
2017-Jun-21 00:00N 55°03' E 018°04'611.4
2017-Jun-20 23:30N 55°02' E 018°14'611.4
2017-Jun-20 23:00N 55°01' E 018°24'611.6
2017-Jun-20 22:30N 54°59' E 018°34'611.3
2017-Jun-20 22:00N 54°56' E 018°42'611.8
2017-Jun-20 21:30N 54°52' E 018°49'611.8
2017-Jun-20 21:00N 54°48' E 018°57'510.5
2017-Jun-20 20:30N 54°43' E 018°60'612.8
2017-Jun-20 20:00N 54°37' E 018°56'612.7
2017-Jun-20 19:30N 54°32' E 018°50'612.3
2017-Jun-20 19:00N 54°32' E 018°39'4 7.6
2017-Jun-20 18:30N 54°32' E 018°32'0 0.5
2017-Jun-20 18:00N 54°32' E 018°32'0 0.0
2017-Jun-20 17:29N 54°32' E 018°32'0 0.0
2017-Jun-20 16:59N 54°32' E 018°32'0 0.0
2017-Jun-20 16:29N 54°32' E 018°32'0 0.0
2017-Jun-20 15:59N 54°32' E 018°32'0 0.0
2017-Jun-20 15:29N 54°32' E 018°32'0 0.0
2017-Jun-20 14:59N 54°32' E 018°32'0 0.0
2017-Jun-20 14:29N 54°32' E 018°32'0 0.0
2017-Jun-20 13:29N 54°32' E 018°32'0 0.0
2017-Jun-20 12:59N 54°32' E 018°32'0 0.0
2017-Jun-20 12:29N 54°32' E 018°32'0 0.0
2017-Jun-20 11:59N 54°32' E 018°32'0 0.0
2017-Jun-20 11:29N 54°32' E 018°32'0 0.0
2017-Jun-20 10:59N 54°32' E 018°32'0 0.0
2017-Jun-20 10:29N 54°32' E 018°32'0 0.0
2017-Jun-20 09:59N 54°32' E 018°32'0 0.0
2017-Jun-20 09:29N 54°32' E 018°32'0 0.0
2017-Jun-20 08:59N 54°32' E 018°32'0 0.0
2017-Jun-20 08:29N 54°32' E 018°32'0 0.0
2017-Jun-20 07:59N 54°32' E 018°32'0 0.0
2017-Jun-20 07:29N 54°32' E 018°32'0 0.0
2017-Jun-20 06:59N 54°32' E 018°32'0 0.0
2017-Jun-20 06:29N 54°32' E 018°32'0 0.0
2017-Jun-20 05:59N 54°32' E 018°32'0 0.0
2017-Jun-20 05:29N 54°32' E 018°32'0 0.0
2017-Jun-20 04:59N 54°32' E 018°32'0 0.0
2017-Jun-20 04:29N 54°32' E 018°32'0 0.0
2017-Jun-20 03:59N 54°32' E 018°32'0 0.0
2017-Jun-20 03:29N 54°32' E 018°32'0 0.0
2017-Jun-20 02:59N 54°32' E 018°32'0 0.0
2017-Jun-20 02:29N 54°32' E 018°32'0 0.0
2017-Jun-20 01:59N 54°32' E 018°32'0 0.0
2017-Jun-20 01:29N 54°32' E 018°32'0 0.0
2017-Jun-20 00:59N 54°32' E 018°32'0 0.0
2017-Jun-20 00:29N 54°32' E 018°32'0 0.0
2017-Jun-19 23:59N 54°32' E 018°32'0 0.0
2017-Jun-19 23:29N 54°32' E 018°32'0 0.0
2017-Jun-19 22:59N 54°32' E 018°32'0 0.0
2017-Jun-19 22:29N 54°32' E 018°32'0 0.0
2017-Jun-19 21:59N 54°32' E 018°32'0 0.0
2017-Jun-19 21:29N 54°32' E 018°32'0 0.0
2017-Jun-19 20:59N 54°32' E 018°32'0 0.0
2017-Jun-19 20:29N 54°32' E 018°32'0 0.0
2017-Jun-19 19:56N 54°32' E 018°32'0 0.0
2017-Jun-19 19:29N 54°32' E 018°32'0 0.0
2017-Jun-19 18:59N 54°32' E 018°32'0 0.0
2017-Jun-19 18:29N 54°32' E 018°32'0 0.0
2017-Jun-19 17:59N 54°32' E 018°32'0 0.0
2017-Jun-19 17:29N 54°32' E 018°32'0 0.0
2017-Jun-19 16:59N 54°32' E 018°32'0 0.0
2017-Jun-19 16:29N 54°32' E 018°32'0 0.0
2017-Jun-19 15:59N 54°32' E 018°32'0 0.0
2017-Jun-19 15:29N 54°32' E 018°32'0 0.0
2017-Jun-19 14:59N 54°32' E 018°32'0 0.0
2017-Jun-19 13:59N 54°32' E 018°32'0 0.0
2017-Jun-19 13:29N 54°32' E 018°32'0 0.0
2017-Jun-19 12:59N 54°32' E 018°32'0 0.0
2017-Jun-19 12:29N 54°32' E 018°32'0 0.0
2017-Jun-19 11:59N 54°32' E 018°32'0 0.0
2017-Jun-19 11:29N 54°32' E 018°32'0 0.0
2017-Jun-19 10:59N 54°32' E 018°32'0 0.0
2017-Jun-19 10:29N 54°32' E 018°32'0 0.0
2017-Jun-19 09:59N 54°32' E 018°32'0 0.0
2017-Jun-19 09:29N 54°32' E 018°32'0 0.0
2017-Jun-19 08:59N 54°32' E 018°32'0 0.0
2017-Jun-19 08:29N 54°32' E 018°32'0 0.0
2017-Jun-19 07:59N 54°32' E 018°32'0 0.0
2017-Jun-19 07:29N 54°32' E 018°32'0 0.0
2017-Jun-19 06:59N 54°32' E 018°32'0 0.0
2017-Jun-19 06:29N 54°32' E 018°32'0 0.0
2017-Jun-19 05:59N 54°32' E 018°32'0 0.0
2017-Jun-19 05:29N 54°32' E 018°32'0 0.0
2017-Jun-19 04:59N 54°32' E 018°32'0 0.0
2017-Jun-19 04:29N 54°32' E 018°32'0 0.0
2017-Jun-19 03:59N 54°32' E 018°32'0 0.0
2017-Jun-19 03:29N 54°32' E 018°32'0 0.0
2017-Jun-19 02:59N 54°32' E 018°32'0 0.0
2017-Jun-19 02:29N 54°32' E 018°32'0 0.0
2017-Jun-19 01:59N 54°32' E 018°32'0 0.0
2017-Jun-19 01:29N 54°32' E 018°32'0 0.0
2017-Jun-19 00:59N 54°32' E 018°32'0 0.0
2017-Jun-19 00:29N 54°32' E 018°32'0 0.0
2017-Jun-18 23:59N 54°32' E 018°32'0 0.0
2017-Jun-18 23:29N 54°32' E 018°32'0 0.0
2017-Jun-18 22:59N 54°32' E 018°32'0 0.0
2017-Jun-18 22:29N 54°32' E 018°32'0 0.0
2017-Jun-18 21:59N 54°32' E 018°32'0 0.0
2017-Jun-18 21:29N 54°32' E 018°32'0 0.0
2017-Jun-18 20:59N 54°32' E 018°32'0 0.0
2017-Jun-18 20:29N 54°32' E 018°32'0 0.0
2017-Jun-18 19:59N 54°32' E 018°32'0 0.0
2017-Jun-18 19:29N 54°32' E 018°32'0 0.0
2017-Jun-18 18:59N 54°32' E 018°32'0 0.0
2017-Jun-18 18:29N 54°32' E 018°32'0 0.0
2017-Jun-18 17:59N 54°32' E 018°32'0 0.0
2017-Jun-18 17:29N 54°32' E 018°32'0 0.0
2017-Jun-18 16:59N 54°32' E 018°32'0 0.0
2017-Jun-18 16:29N 54°32' E 018°32'0 0.0
2017-Jun-18 15:59N 54°32' E 018°32'0 0.0
2017-Jun-18 15:29N 54°32' E 018°32'0 0.0
2017-Jun-18 14:59N 54°32' E 018°32'0 0.0
2017-Jun-18 13:59N 54°32' E 018°32'0 0.0
2017-Jun-18 13:29N 54°32' E 018°32'0 0.0
2017-Jun-18 12:59N 54°32' E 018°32'0 0.0
2017-Jun-18 12:29N 54°32' E 018°32'0 0.0
2017-Jun-18 11:59N 54°32' E 018°32'0 0.0
2017-Jun-18 11:29N 54°32' E 018°32'0 0.0
2017-Jun-18 10:59N 54°32' E 018°32'0 0.0
2017-Jun-18 10:29N 54°32' E 018°32'0 0.0
2017-Jun-18 09:59N 54°32' E 018°32'0 0.0
2017-Jun-18 09:29N 54°32' E 018°32'0 0.0
2017-Jun-18 08:59N 54°32' E 018°32'0 0.0
2017-Jun-18 08:29N 54°32' E 018°32'0 0.0
2017-Jun-18 07:59N 54°32' E 018°32'0 0.0
2017-Jun-18 07:29N 54°32' E 018°32'0 0.0
2017-Jun-18 06:59N 54°32' E 018°32'0 0.0
2017-Jun-18 06:29N 54°32' E 018°32'0 0.0
2017-Jun-18 05:59N 54°32' E 018°32'0 0.0
2017-Jun-18 05:29N 54°32' E 018°32'0 0.0
2017-Jun-18 04:59N 54°32' E 018°32'0 0.0
2017-Jun-18 04:29N 54°32' E 018°32'0 0.0
2017-Jun-18 03:59N 54°32' E 018°32'0 0.0
2017-Jun-18 03:29N 54°32' E 018°32'0 0.0
2017-Jun-18 02:59N 54°32' E 018°32'0 0.0
2017-Jun-18 02:29N 54°32' E 018°32'0 0.0
2017-Jun-18 01:50N 54°32' E 018°32'0 0.0
2017-Jun-18 01:29N 54°32' E 018°32'0 0.0
2017-Jun-18 00:59N 54°32' E 018°32'0 0.0
2017-Jun-18 00:26N 54°32' E 018°32'0 0.0
2017-Jun-17 23:59N 54°32' E 018°32'0 0.0
2017-Jun-17 23:29N 54°32' E 018°32'0 0.0
2017-Jun-17 22:59N 54°32' E 018°32'0 0.0
2017-Jun-17 22:29N 54°32' E 018°32'0 0.0
2017-Jun-17 21:59N 54°32' E 018°32'0 0.0
2017-Jun-17 21:29N 54°32' E 018°32'0 0.0
2017-Jun-17 20:59N 54°32' E 018°32'0 0.0
2017-Jun-17 20:29N 54°32' E 018°32'0 0.0
2017-Jun-17 19:59N 54°32' E 018°32'0 0.0
2017-Jun-17 19:29N 54°32' E 018°32'0 0.0
2017-Jun-17 18:59N 54°32' E 018°32'0 0.0
2017-Jun-17 18:29N 54°32' E 018°32'0 0.0
2017-Jun-17 17:59N 54°32' E 018°32'0 0.0
2017-Jun-17 17:29N 54°32' E 018°32'0 0.0
2017-Jun-17 16:59N 54°32' E 018°32'0 0.0
2017-Jun-17 16:29N 54°32' E 018°32'0 0.0
2017-Jun-17 15:59N 54°32' E 018°32'0 0.0
2017-Jun-17 15:29N 54°32' E 018°32'0 0.0
2017-Jun-17 14:59N 54°32' E 018°32'0 0.0
2017-Jun-17 14:29N 54°32' E 018°32'0 0.0
2017-Jun-17 13:29N 54°32' E 018°32'0 0.0
2017-Jun-17 12:59N 54°32' E 018°32'0 0.0
2017-Jun-17 12:29N 54°32' E 018°32'0 0.0
2017-Jun-17 11:59N 54°32' E 018°32'0 0.0
2017-Jun-17 11:29N 54°32' E 018°32'0 0.0
2017-Jun-17 10:59N 54°32' E 018°32'0 0.0
2017-Jun-17 10:29N 54°32' E 018°32'0 0.0
2017-Jun-17 09:59N 54°32' E 018°32'0 0.0
2017-Jun-17 09:29N 54°32' E 018°32'0 0.0
2017-Jun-17 08:59N 54°32' E 018°32'0 0.0
2017-Jun-17 08:29N 54°32' E 018°32'0 0.0
2017-Jun-17 07:59N 54°32' E 018°32'0 0.0
2017-Jun-17 07:29N 54°32' E 018°32'0 0.0
2017-Jun-17 06:59N 54°32' E 018°32'0 0.0
2017-Jun-17 06:29N 54°32' E 018°32'0 0.0
2017-Jun-17 05:59N 54°32' E 018°32'0 0.0
2017-Jun-17 05:29N 54°32' E 018°32'0 0.0
2017-Jun-17 04:59N 54°32' E 018°32'0 0.0
2017-Jun-17 04:29N 54°32' E 018°32'0 0.0
2017-Jun-17 03:59N 54°32' E 018°32'0 0.0
2017-Jun-17 03:29N 54°32' E 018°32'0 0.0
2017-Jun-17 02:59N 54°32' E 018°32'0 0.0
2017-Jun-17 02:29N 54°32' E 018°32'0 0.0
2017-Jun-17 01:59N 54°32' E 018°32'0 0.0
2017-Jun-17 01:29N 54°32' E 018°32'0 0.0
2017-Jun-17 00:59N 54°32' E 018°32'0 0.0
2017-Jun-17 00:29N 54°32' E 018°32'0 0.0
2017-Jun-16 23:59N 54°32' E 018°32'0 0.0
2017-Jun-16 23:29N 54°32' E 018°32'0 0.0
2017-Jun-16 22:59N 54°32' E 018°32'0 0.0
2017-Jun-16 22:29N 54°32' E 018°32'0 0.0
2017-Jun-16 21:59N 54°32' E 018°32'0 0.0
2017-Jun-16 21:29N 54°32' E 018°32'0 0.0
2017-Jun-16 20:59N 54°32' E 018°32'0 0.0
2017-Jun-16 20:29N 54°32' E 018°32'0 0.0
2017-Jun-16 19:59N 54°32' E 018°32'0 0.0
2017-Jun-16 19:29N 54°32' E 018°32'0 0.0
2017-Jun-16 18:59N 54°32' E 018°32'0 0.0
2017-Jun-16 18:29N 54°32' E 018°32'0 0.0
2017-Jun-16 17:59N 54°32' E 018°32'0 0.0
2017-Jun-16 17:29N 54°32' E 018°32'0 0.0
2017-Jun-16 16:59N 54°32' E 018°32'0 0.0
2017-Jun-16 16:29N 54°32' E 018°32'0 0.0
2017-Jun-16 15:59N 54°32' E 018°32'0 0.0
2017-Jun-16 15:29N 54°32' E 018°32'0 0.0
2017-Jun-16 14:59N 54°32' E 018°32'0 0.0
2017-Jun-16 14:29N 54°32' E 018°32'0 0.0
2017-Jun-16 13:29N 54°32' E 018°32'0 0.0
2017-Jun-16 12:59N 54°32' E 018°32'0 0.0
2017-Jun-16 12:29N 54°32' E 018°32'0 0.0
2017-Jun-16 11:59N 54°32' E 018°32'0 0.0
2017-Jun-16 11:29N 54°32' E 018°32'0 0.0
2017-Jun-16 10:59N 54°32' E 018°32'0 0.0
2017-Jun-16 10:29N 54°32' E 018°32'0 0.0
2017-Jun-16 09:59N 54°32' E 018°32'0 0.0
2017-Jun-16 09:29N 54°32' E 018°32'0 0.0
2017-Jun-16 08:59N 54°32' E 018°32'  
Track history (hours):
 
Tides and Currents Weather Stations Pressure Air Temp Water Temp Dewpoint Dewpoint Depression Visibility Wind Speed Wind Dir Waves Ship Positions

Condor Express

Operator: Condor Marine Services

Last reported at 2017-Jun-26 08:58 UTC. Time now 2017-Jun-26 17:16 UTC.
Position N 48°23' W 006°12'.

Length 235 m; draft 8.9 m.

Type: Cargo ship. MMSI: 563014500.

Date/timePositionNaut miles runAvg speedWind from/ knotsBaromVisibWave heightAir tempDewpointWater temp
2017-Jun-26 08:58N 48°23' W 006°12'5211.0
2017-Jun-26 04:14N 49°04' W 005°22'210.8
2017-Jun-26 04:00N 49°05' W 005°19'811.2
2017-Jun-26 03:20N 49°09' W 005°09'511.2
2017-Jun-26 02:52N 49°12' W 005°03'411.3
2017-Jun-26 02:30N 49°14' W 004°57'612.3
2017-Jun-26 02:00N 49°16' W 004°49'713.1
2017-Jun-26 01:30N 49°20' W 004°40'713.6
2017-Jun-26 01:00N 49°23' W 004°31'713.8
2017-Jun-26 00:30N 49°26' W 004°22'713.9
2017-Jun-26 00:00N 49°30' W 004°13'713.7
2017-Jun-25 23:30N 49°33' W 004°03'613.1
2017-Jun-25 23:00N 49°37' W 003°55'612.7
2017-Jun-25 22:30N 49°40' W 003°46'811.9
2017-Jun-25 21:52N 49°43' W 003°36'411.2
2017-Jun-25 21:30N 49°45' W 003°30'510.5
2017-Jun-25 21:00N 49°47' W 003°23'5 9.9
2017-Jun-25 20:30N 49°50' W 003°17'5 9.5
2017-Jun-25 20:00N 49°53' W 003°11'5 9.4
2017-Jun-25 19:30N 49°55' W 003°04'5 9.5
2017-Jun-25 19:00N 49°58' W 002°58'5 9.6
2017-Jun-25 18:30N 49°60' W 002°51'510.1
2017-Jun-25 18:00N 50°01' W 002°43'510.7
2017-Jun-25 17:30N 50°03' W 002°36'611.7
2017-Jun-25 17:00N 50°04' W 002°27'712.8
2017-Jun-25 16:28N 50°06' W 002°17'613.8
2017-Jun-25 16:00N 50°08' W 002°07'714.6
2017-Jun-25 15:30N 50°10' W 001°56'815.3
2017-Jun-25 15:00N 50°12' W 001°45'715.0
2017-Jun-25 14:31N 50°14' W 001°33'1514.5
2017-Jun-25 13:30N 50°18' W 001°11'713.5
2017-Jun-25 13:00N 50°20' W 001°01'712.1
2017-Jun-25 12:28N 50°21' W 000°51'2210.2
2017-Jun-25 10:21N 50°27' W 000°18'3 9.3
2017-Jun-25 10:00N 50°28' W 000°13'4 9.1
2017-Jun-25 09:30N 50°28' W 000°06'5 9.0
2017-Jun-25 09:00N 50°29' E 000°00'5 9.2
2017-Jun-25 08:30N 50°31' E 000°07'5 9.7
2017-Jun-25 08:00N 50°33' E 000°14'510.4
2017-Jun-25 07:30N 50°34' E 000°22'611.2
2017-Jun-25 07:00N 50°36' E 000°31'612.0
2017-Jun-25 06:30N 50°38' E 000°39'612.6
2017-Jun-25 06:00N 50°42' E 000°47'612.9
2017-Jun-25 05:30N 50°45' E 000°56'712.9
2017-Jun-25 04:59N 50°49' E 001°05'612.5
2017-Jun-25 04:30N 50°52' E 001°13'611.8
2017-Jun-25 04:00N 50°56' E 001°20'611.4
2017-Jun-25 03:30N 51°00' E 001°26'510.4
2017-Jun-25 03:01N 51°04' E 001°31'5 9.3
2017-Jun-25 02:30N 51°08' E 001°36'4 8.8
2017-Jun-25 02:00N 51°11' E 001°41'4 8.9
2017-Jun-25 01:30N 51°14' E 001°46'4 8.9
2017-Jun-25 01:01N 51°18' E 001°49'5 9.4
2017-Jun-25 00:30N 51°22' E 001°53'510.0
2017-Jun-25 00:00N 51°27' E 001°57'510.8
2017-Jun-24 23:30N 51°31' E 002°02'611.2
2017-Jun-24 23:00N 51°35' E 002°09'611.8
2017-Jun-24 22:29N 51°39' E 002°16'15711.3
2017-Jun-24 08:36N 53°58' E 004°16'111.6
2017-Jun-24 08:30N 53°59' E 004°17'611.5
2017-Jun-24 08:00N 54°02' E 004°25'611.3
2017-Jun-24 07:30N 54°07' E 004°31'611.3
2017-Jun-24 06:59N 54°12' E 004°36'25811.6
2017-Jun-23 08:44N 57°41' E 009°05'411.6
2017-Jun-23 08:25N 57°44' E 009°11'511.6
2017-Jun-23 07:59N 57°47' E 009°18'511.4
2017-Jun-23 07:30N 57°48' E 009°28'612.1
2017-Jun-23 07:00N 57°48' E 009°40'612.4
2017-Jun-23 06:30N 57°49' E 009°51'612.7
2017-Jun-23 06:00N 57°49' E 010°03'612.8
2017-Jun-23 05:30N 57°50' E 010°15'713.0
2017-Jun-23 05:00N 57°50' E 010°28'713.1
2017-Jun-23 04:29N 57°50' E 010°40'612.0
2017-Jun-23 04:00N 57°48' E 010°50'612.4
2017-Jun-23 03:28N 57°44' E 011°00'612.4
2017-Jun-23 03:00N 57°41' E 011°10'612.4
2017-Jun-23 02:31N 57°39' E 011°20'612.5
2017-Jun-23 02:01N 57°35' E 011°30'510.0
2017-Jun-23 01:31N 57°33' E 011°38'0 0.6
2017-Jun-23 00:58N 57°33' E 011°38'0 0.1
2017-Jun-23 00:28N 57°33' E 011°38'0 0.0
2017-Jun-22 23:58N 57°33' E 011°38'0 0.0
2017-Jun-22 23:28N 57°33' E 011°38'0 0.0
2017-Jun-22 22:58N 57°33' E 011°38'0 0.0
2017-Jun-22 22:28N 57°33' E 011°38'0 0.0
2017-Jun-22 21:58N 57°33' E 011°38'0 0.0
2017-Jun-22 21:28N 57°33' E 011°38'0 0.0
2017-Jun-22 20:55N 57°33' E 011°38'0 0.0
2017-Jun-22 20:28N 57°33' E 011°38'0 0.1
2017-Jun-22 19:58N 57°33' E 011°38'0 0.0
2017-Jun-22 19:28N 57°33' E 011°38'0 0.0
2017-Jun-22 18:58N 57°33' E 011°38'0 0.0
2017-Jun-22 18:28N 57°33' E 011°38'0 0.1
2017-Jun-22 17:58N 57°33' E 011°38'0 0.0
2017-Jun-22 17:22N 57°33' E 011°38'0 0.1
2017-Jun-22 16:58N 57°33' E 011°38'0 0.1
2017-Jun-22 16:28N 57°33' E 011°38'0 0.1
2017-Jun-22 15:58N 57°33' E 011°38'0 0.2
2017-Jun-22 15:30N 57°33' E 011°38'4 7.4
2017-Jun-22 15:00N 57°31' E 011°32'5 9.3
2017-Jun-22 14:26N 57°26' E 011°28'1212.4
2017-Jun-22 13:27N 57°15' E 011°35'612.3
2017-Jun-22 13:00N 57°10' E 011°38'612.4
2017-Jun-22 12:30N 57°04' E 011°42'3010.2
2017-Jun-22 09:32N 56°34' E 011°29'012.6
2017-Jun-22 09:30N 56°34' E 011°29'712.7
2017-Jun-22 08:58N 56°29' E 011°19'712.7
2017-Jun-22 08:26N 56°25' E 011°10'410.5
2017-Jun-22 08:00N 56°21' E 011°06'712.8
2017-Jun-22 07:26N 56°14' E 011°06'512.9
2017-Jun-22 07:00N 56°08' E 011°05'712.8
2017-Jun-22 06:30N 56°02' E 011°04'612.2
2017-Jun-22 06:00N 55°56' E 010°59'612.8
2017-Jun-22 05:30N 55°52' E 010°52'712.3
2017-Jun-22 04:56N 55°45' E 010°48'613.0
2017-Jun-22 04:29N 55°39' E 010°47'713.2
2017-Jun-22 03:57N 55°32' E 010°51'613.0
2017-Jun-22 03:30N 55°27' E 010°56'612.7
2017-Jun-22 02:59N 55°22' E 011°02'612.9
2017-Jun-22 02:30N 55°16' E 011°05'611.5
2017-Jun-22 02:00N 55°10' E 011°03'612.4
2017-Jun-22 01:30N 55°04' E 011°02'611.6
2017-Jun-22 01:00N 54°58' E 010°59'611.7
2017-Jun-22 00:30N 54°53' E 010°54'612.4
2017-Jun-22 00:00N 54°48' E 010°50'611.6
2017-Jun-21 23:30N 54°42' E 010°46'3 6.0
2017-Jun-21 23:00N 54°40' E 010°50'510.3
2017-Jun-21 22:30N 54°37' E 010°57'611.0
2017-Jun-21 22:00N 54°37' E 011°07'611.7
2017-Jun-21 21:30N 54°35' E 011°16'611.9
2017-Jun-21 21:00N 54°33' E 011°26'612.1
2017-Jun-21 20:30N 54°30' E 011°35'712.0
2017-Jun-21 19:53N 54°27' E 011°47'3611.1
2017-Jun-21 16:41N 54°45' E 012°39'412.7
2017-Jun-21 16:20N 54°47' E 012°46'1212.3
2017-Jun-21 15:22N 54°52' E 013°05'512.5
2017-Jun-21 14:57N 54°54' E 013°13'1212.6
2017-Jun-21 13:59N 54°58' E 013°33'612.6
2017-Jun-21 13:30N 54°60' E 013°44'612.3
2017-Jun-21 13:00N 55°02' E 013°54'611.8
2017-Jun-21 12:30N 55°04' E 014°03'612.1
2017-Jun-21 12:00N 55°08' E 014°10'612.3
2017-Jun-21 11:31N 55°13' E 014°16'612.0
2017-Jun-21 11:01N 55°18' E 014°23'612.0
2017-Jun-21 10:30N 55°22' E 014°30'611.5
2017-Jun-21 10:00N 55°26' E 014°39'611.9
2017-Jun-21 09:30N 55°25' E 014°49'611.9
2017-Jun-21 09:00N 55°24' E 014°59'612.1
2017-Jun-21 08:30N 55°24' E 015°10'612.1
2017-Jun-21 08:00N 55°25' E 015°20'611.5
2017-Jun-21 07:30N 55°24' E 015°30'612.0
2017-Jun-21 07:00N 55°23' E 015°41'612.5
2017-Jun-21 06:30N 55°22' E 015°51'612.4
2017-Jun-21 06:00N 55°20' E 016°02'612.1
2017-Jun-21 05:30N 55°19' E 016°12'611.7
2017-Jun-21 04:59N 55°17' E 016°22'812.1
2017-Jun-21 04:21N 55°15' E 016°35'412.3
2017-Jun-21 04:00N 55°14' E 016°43'712.2
2017-Jun-21 03:25N 55°12' E 016°55'512.3
2017-Jun-21 02:59N 55°11' E 017°04'612.2
2017-Jun-21 02:30N 55°10' E 017°14'1912.0
2017-Jun-21 00:54N 55°06' E 017°47'711.6
2017-Jun-21 00:17N 55°04' E 017°59'311.4
2017-Jun-21 00:00N 55°03' E 018°04'611.4
2017-Jun-20 23:30N 55°02' E 018°14'611.4
2017-Jun-20 23:00N 55°01' E 018°24'611.6
2017-Jun-20 22:30N 54°59' E 018°34'611.3
2017-Jun-20 22:00N 54°56' E 018°42'611.8
2017-Jun-20 21:30N 54°52' E 018°49'611.8
2017-Jun-20 21:00N 54°48' E 018°57'510.5
2017-Jun-20 20:30N 54°43' E 018°60'612.8
2017-Jun-20 20:00N 54°37' E 018°56'612.7
2017-Jun-20 19:30N 54°32' E 018°50'612.3
2017-Jun-20 19:00N 54°32' E 018°39'4 7.6
2017-Jun-20 18:30N 54°32' E 018°32'0 0.5
2017-Jun-20 18:00N 54°32' E 018°32'0 0.0
2017-Jun-20 17:29N 54°32' E 018°32'0 0.0
2017-Jun-20 16:59N 54°32' E 018°32'0 0.0
2017-Jun-20 16:29N 54°32' E 018°32'0 0.0
2017-Jun-20 15:59N 54°32' E 018°32'0 0.0
2017-Jun-20 15:29N 54°32' E 018°32'0 0.0
2017-Jun-20 14:59N 54°32' E 018°32'0 0.0
2017-Jun-20 14:29N 54°32' E 018°32'0 0.0
2017-Jun-20 13:29N 54°32' E 018°32'0 0.0
2017-Jun-20 12:59N 54°32' E 018°32'0 0.0
2017-Jun-20 12:29N 54°32' E 018°32'0 0.0
2017-Jun-20 11:59N 54°32' E 018°32'0 0.0
2017-Jun-20 11:29N 54°32' E 018°32'0 0.0
2017-Jun-20 10:59N 54°32' E 018°32'0 0.0
2017-Jun-20 10:29N 54°32' E 018°32'0 0.0
2017-Jun-20 09:59N 54°32' E 018°32'0 0.0
2017-Jun-20 09:29N 54°32' E 018°32'0 0.0
2017-Jun-20 08:59N 54°32' E 018°32'0 0.0
2017-Jun-20 08:29N 54°32' E 018°32'0 0.0
2017-Jun-20 07:59N 54°32' E 018°32'0 0.0
2017-Jun-20 07:29N 54°32' E 018°32'0 0.0
2017-Jun-20 06:59N 54°32' E 018°32'0 0.0
2017-Jun-20 06:29N 54°32' E 018°32'0 0.0
2017-Jun-20 05:59N 54°32' E 018°32'0 0.0
2017-Jun-20 05:29N 54°32' E 018°32'0 0.0
2017-Jun-20 04:59N 54°32' E 018°32'0 0.0
2017-Jun-20 04:29N 54°32' E 018°32'0 0.0
2017-Jun-20 03:59N 54°32' E 018°32'0 0.0
2017-Jun-20 03:29N 54°32' E 018°32'0 0.0
2017-Jun-20 02:59N 54°32' E 018°32'0 0.0
2017-Jun-20 02:29N 54°32' E 018°32'0 0.0
2017-Jun-20 01:59N 54°32' E 018°32'0 0.0
2017-Jun-20 01:29N 54°32' E 018°32'0 0.0
2017-Jun-20 00:59N 54°32' E 018°32'0 0.0
2017-Jun-20 00:29N 54°32' E 018°32'0 0.0
2017-Jun-19 23:59N 54°32' E 018°32'0 0.0
2017-Jun-19 23:29N 54°32' E 018°32'0 0.0
2017-Jun-19 22:59N 54°32' E 018°32'0 0.0
2017-Jun-19 22:29N 54°32' E 018°32'0 0.0
2017-Jun-19 21:59N 54°32' E 018°32'0 0.0
2017-Jun-19 21:29N 54°32' E 018°32'0 0.0
2017-Jun-19 20:59N 54°32' E 018°32'0 0.0
2017-Jun-19 20:29N 54°32' E 018°32'0 0.0
2017-Jun-19 19:56N 54°32' E 018°32'0 0.0
2017-Jun-19 19:29N 54°32' E 018°32'0 0.0
2017-Jun-19 18:59N 54°32' E 018°32'0 0.0
2017-Jun-19 18:29N 54°32' E 018°32'0 0.0
2017-Jun-19 17:59N 54°32' E 018°32'0 0.0
2017-Jun-19 17:29N 54°32' E 018°32'0 0.0
2017-Jun-19 16:59N 54°32' E 018°32'0 0.0
2017-Jun-19 16:29N 54°32' E 018°32'0 0.0
2017-Jun-19 15:59N 54°32' E 018°32'0 0.0
2017-Jun-19 15:29N 54°32' E 018°32'0 0.0
2017-Jun-19 14:59N 54°32' E 018°32'0 0.0
2017-Jun-19 13:59N 54°32' E 018°32'0 0.0
2017-Jun-19 13:29N 54°32' E 018°32'0 0.0
2017-Jun-19 12:59N 54°32' E 018°32'0 0.0
2017-Jun-19 12:29N 54°32' E 018°32'0 0.0
2017-Jun-19 11:59N 54°32' E 018°32'0 0.0
2017-Jun-19 11:29N 54°32' E 018°32'0 0.0
2017-Jun-19 10:59N 54°32' E 018°32'0 0.0
2017-Jun-19 10:29N 54°32' E 018°32'0 0.0
2017-Jun-19 09:59N 54°32' E 018°32'0 0.0
2017-Jun-19 09:29N 54°32' E 018°32'0 0.0
2017-Jun-19 08:59N 54°32' E 018°32'0 0.0
2017-Jun-19 08:29N 54°32' E 018°32'0 0.0
2017-Jun-19 07:59N 54°32' E 018°32'0 0.0
2017-Jun-19 07:29N 54°32' E 018°32'0 0.0
2017-Jun-19 06:59N 54°32' E 018°32'0 0.0
2017-Jun-19 06:29N 54°32' E 018°32'0 0.0
2017-Jun-19 05:59N 54°32' E 018°32'0 0.0
2017-Jun-19 05:29N 54°32' E 018°32'0 0.0
2017-Jun-19 04:59N 54°32' E 018°32'0 0.0
2017-Jun-19 04:29N 54°32' E 018°32'0 0.0
2017-Jun-19 03:59N 54°32' E 018°32'0 0.0
2017-Jun-19 03:29N 54°32' E 018°32'0 0.0
2017-Jun-19 02:59N 54°32' E 018°32'0 0.0
2017-Jun-19 02:29N 54°32' E 018°32'0 0.0
2017-Jun-19 01:59N 54°32' E 018°32'0 0.0
2017-Jun-19 01:29N 54°32' E 018°32'0 0.0
2017-Jun-19 00:59N 54°32' E 018°32'0 0.0
2017-Jun-19 00:29N 54°32' E 018°32'0 0.0
2017-Jun-18 23:59N 54°32' E 018°32'0 0.0
2017-Jun-18 23:29N 54°32' E 018°32'0 0.0
2017-Jun-18 22:59N 54°32' E 018°32'0 0.0
2017-Jun-18 22:29N 54°32' E 018°32'0 0.0
2017-Jun-18 21:59N 54°32' E 018°32'0 0.0
2017-Jun-18 21:29N 54°32' E 018°32'0 0.0
2017-Jun-18 20:59N 54°32' E 018°32'0 0.0
2017-Jun-18 20:29N 54°32' E 018°32'0 0.0
2017-Jun-18 19:59N 54°32' E 018°32'0 0.0
2017-Jun-18 19:29N 54°32' E 018°32'0 0.0
2017-Jun-18 18:59N 54°32' E 018°32'0 0.0
2017-Jun-18 18:29N 54°32' E 018°32'0 0.0
2017-Jun-18 17:59N 54°32' E 018°32'0 0.0
2017-Jun-18 17:29N 54°32' E 018°32'0 0.0
2017-Jun-18 16:59N 54°32' E 018°32'0 0.0
2017-Jun-18 16:29N 54°32' E 018°32'0 0.0
2017-Jun-18 15:59N 54°32' E 018°32'0 0.0
2017-Jun-18 15:29N 54°32' E 018°32'0 0.0
2017-Jun-18 14:59N 54°32' E 018°32'0 0.0
2017-Jun-18 13:59N 54°32' E 018°32'0 0.0
2017-Jun-18 13:29N 54°32' E 018°32'0 0.0
2017-Jun-18 12:59N 54°32' E 018°32'0 0.0
2017-Jun-18 12:29N 54°32' E 018°32'0 0.0
2017-Jun-18 11:59N 54°32' E 018°32'0 0.0
2017-Jun-18 11:29N 54°32' E 018°32'0 0.0
2017-Jun-18 10:59N 54°32' E 018°32'0 0.0
2017-Jun-18 10:29N 54°32' E 018°32'0 0.0
2017-Jun-18 09:59N 54°32' E 018°32'0 0.0
2017-Jun-18 09:29N 54°32' E 018°32'0 0.0
2017-Jun-18 08:59N 54°32' E 018°32'0 0.0
2017-Jun-18 08:29N 54°32' E 018°32'0 0.0
2017-Jun-18 07:59N 54°32' E 018°32'0 0.0
2017-Jun-18 07:29N 54°32' E 018°32'0 0.0
2017-Jun-18 06:59N 54°32' E 018°32'0 0.0
2017-Jun-18 06:29N 54°32' E 018°32'0 0.0
2017-Jun-18 05:59N 54°32' E 018°32'0 0.0
2017-Jun-18 05:29N 54°32' E 018°32'0 0.0
2017-Jun-18 04:59N 54°32' E 018°32'0 0.0
2017-Jun-18 04:29N 54°32' E 018°32'0 0.0
2017-Jun-18 03:59N 54°32' E 018°32'0 0.0
2017-Jun-18 03:29N 54°32' E 018°32'0 0.0
2017-Jun-18 02:59N 54°32' E 018°32'0 0.0
2017-Jun-18 02:29N 54°32' E 018°32'0 0.0
2017-Jun-18 01:50N 54°32' E 018°32'0 0.0
2017-Jun-18 01:29N 54°32' E 018°32'0 0.0
2017-Jun-18 00:59N 54°32' E 018°32'0 0.0
2017-Jun-18 00:26N 54°32' E 018°32'0 0.0
2017-Jun-17 23:59N 54°32' E 018°32'0 0.0
2017-Jun-17 23:29N 54°32' E 018°32'0 0.0
2017-Jun-17 22:59N 54°32' E 018°32'0 0.0
2017-Jun-17 22:29N 54°32' E 018°32'0 0.0
2017-Jun-17 21:59N 54°32' E 018°32'0 0.0
2017-Jun-17 21:29N 54°32' E 018°32'0 0.0
2017-Jun-17 20:59N 54°32' E 018°32'0 0.0
2017-Jun-17 20:29N 54°32' E 018°32'0 0.0
2017-Jun-17 19:59N 54°32' E 018°32'0 0.0
2017-Jun-17 19:29N 54°32' E 018°32'0 0.0
2017-Jun-17 18:59N 54°32' E 018°32'0 0.0
2017-Jun-17 18:29N 54°32' E 018°32'0 0.0
2017-Jun-17 17:59N 54°32' E 018°32'0 0.0
2017-Jun-17 17:29N 54°32' E 018°32'0 0.0
2017-Jun-17 16:59N 54°32' E 018°32'0 0.0
2017-Jun-17 16:29N 54°32' E 018°32'0 0.0
2017-Jun-17 15:59N 54°32' E 018°32'0 0.0
2017-Jun-17 15:29N 54°32' E 018°32'0 0.0
2017-Jun-17 14:59N 54°32' E 018°32'0 0.0
2017-Jun-17 14:29N 54°32' E 018°32'0 0.0
2017-Jun-17 13:29N 54°32' E 018°32'0 0.0
2017-Jun-17 12:59N 54°32' E 018°32'0 0.0
2017-Jun-17 12:29N 54°32' E 018°32'0 0.0
2017-Jun-17 11:59N 54°32' E 018°32'0 0.0
2017-Jun-17 11:29N 54°32' E 018°32'0 0.0
2017-Jun-17 10:59N 54°32' E 018°32'0 0.0
2017-Jun-17 10:29N 54°32' E 018°32'0 0.0
2017-Jun-17 09:59N 54°32' E 018°32'0 0.0
2017-Jun-17 09:29N 54°32' E 018°32'0 0.0
2017-Jun-17 08:59N 54°32' E 018°32'0 0.0
2017-Jun-17 08:29N 54°32' E 018°32'0 0.0
2017-Jun-17 07:59N 54°32' E 018°32'0 0.0
2017-Jun-17 07:29N 54°32' E 018°32'0 0.0
2017-Jun-17 06:59N 54°32' E 018°32'0 0.0
2017-Jun-17 06:29N 54°32' E 018°32'0 0.0
2017-Jun-17 05:59N 54°32' E 018°32'0 0.0
2017-Jun-17 05:29N 54°32' E 018°32'0 0.0
2017-Jun-17 04:59N 54°32' E 018°32'0 0.0
2017-Jun-17 04:29N 54°32' E 018°32'0 0.0
2017-Jun-17 03:59N 54°32' E 018°32'0 0.0
2017-Jun-17 03:29N 54°32' E 018°32'0 0.0
2017-Jun-17 02:59N 54°32' E 018°32'0 0.0
2017-Jun-17 02:29N 54°32' E 018°32'0 0.0
2017-Jun-17 01:59N 54°32' E 018°32'0 0.0
2017-Jun-17 01:29N 54°32' E 018°32'0 0.0
2017-Jun-17 00:59N 54°32' E 018°32'0 0.0
2017-Jun-17 00:29N 54°32' E 018°32'0 0.0
2017-Jun-16 23:59N 54°32' E 018°32'0 0.0
2017-Jun-16 23:29N 54°32' E 018°32'0 0.0
2017-Jun-16 22:59N 54°32' E 018°32'0 0.0
2017-Jun-16 22:29N 54°32' E 018°32'0 0.0
2017-Jun-16 21:59N 54°32' E 018°32'0 0.0
2017-Jun-16 21:29N 54°32' E 018°32'0 0.0
2017-Jun-16 20:59N 54°32' E 018°32'0 0.0
2017-Jun-16 20:29N 54°32' E 018°32'0 0.0
2017-Jun-16 19:59N 54°32' E 018°32'0 0.0
2017-Jun-16 19:29N 54°32' E 018°32'0 0.0
2017-Jun-16 18:59N 54°32' E 018°32'0 0.0
2017-Jun-16 18:29N 54°32' E 018°32'0 0.0
2017-Jun-16 17:59N 54°32' E 018°32'0 0.0
2017-Jun-16 17:29N 54°32' E 018°32'0 0.0
2017-Jun-16 16:59N 54°32' E 018°32'0 0.0
2017-Jun-16 16:29N 54°32' E 018°32'0 0.0
2017-Jun-16 15:59N 54°32' E 018°32'0 0.0
2017-Jun-16 15:29N 54°32' E 018°32'0 0.0
2017-Jun-16 14:59N 54°32' E 018°32'0 0.0
2017-Jun-16 14:29N 54°32' E 018°32'0 0.0
2017-Jun-16 13:29N 54°32' E 018°32'0 0.0
2017-Jun-16 12:59N 54°32' E 018°32'0 0.0
2017-Jun-16 12:29N 54°32' E 018°32'0 0.0
2017-Jun-16 11:59N 54°32' E 018°32'0 0.0
2017-Jun-16 11:29N 54°32' E 018°32'0 0.0
2017-Jun-16 10:59N 54°32' E 018°32'0 0.0
2017-Jun-16 10:29N 54°32' E 018°32'0 0.0
2017-Jun-16 09:59N 54°32' E 018°32'0 0.0
2017-Jun-16 09:29N 54°32' E 018°32'0 0.0
2017-Jun-16 08:59N 54°32' E 018°32'  

Dump ship's entire track history